Nearby METAR Reports

 

KOXC - Oxford/Waterbury, Connecticut, USA
Distance from station: NW 7mi, 11km
Updated: 06/18/2018 11:51pm
Partly cloudy
Partly cloudy
 Wind from SW
Wind: SW 3 mph , 6 km/h
Temperature: 72°F , 22°C
Dew Point: 70°F , 21°C
Humidity: 94%
Barometer: 29.79 inHg , 1008.8 hPa
Clouds: Partly cloudy
Visibility: 10 miles , 16 km
Cloud details: Few Clouds 10000 ft
Partly cloudy 12000 ft
2018/06/19 03:51 KOXC 190351Z AUTO 22003KT 10SM FEW100 SCT120 22/21 A2979 RMK AO2 SLP091 T02170211
KHVN - New Haven/Tweed, Connecticut, USA
Distance from station: SE 13mi, 20km
Updated: 06/18/2018 11:53pm
Mostly cloudy
Mostly cloudy
 Wind from SSW
Wind: SSW 6 mph , 9 km/h
Temperature: 72°F , 22°C
Dew Point: 66°F , 19°C
Humidity: 83%
Barometer: 29.75 inHg , 1007.5 hPa
Clouds: Mostly cloudy
Visibility: 10 miles , 16 km
Cloud details: Few Clouds 9500 ft
Mostly cloudy 11000 ft
2018/06/19 03:53 KHVN 190353Z AUTO 21005KT 10SM FEW095 BKN110 22/19 A2975 RMK AO2 SLP073 T02170189 $
 
KMMK - Meriden, Connecticut, USA
Distance from station: NE 13mi, 21km
Updated: 06/18/2018 11:53pm
Partly cloudy
Partly cloudy
 Wind from SE
Wind: SE 5 mph , 7 km/h
Temperature: 73°F , 23°C
Dew Point: 70°F , 21°C
Humidity: 89%
Barometer: 29.74 inHg , 1007.1 hPa
Clouds: Partly cloudy
Visibility: 10 miles , 16 km
Cloud details: Few Clouds 7500 ft
Partly cloudy 11000 ft
2018/06/19 03:53 KMMK 190353Z AUTO 14004KT 10SM FEW075 SCT110 23/21 A2974 RMK AO2 SLP069 T02280206
KBDR - Bridgeport, Connecticut, USA
Distance from station: SSW 17mi, 27km
Updated: 06/18/2018 11:52pm
Partly cloudy
Partly cloudy
 Wind from SW
Wind: SW 6 mph , 9 km/h
Temperature: 72°F , 22°C
Dew Point: 66°F , 19°C
Humidity: 83%
Barometer: 29.75 inHg , 1007.5 hPa
Clouds: Partly cloudy
Visibility: 10 miles , 16 km
Cloud details: Partly cloudy 11000 ft
2018/06/19 03:52 KBDR 190352Z AUTO 23005KT 10SM SCT110 22/19 A2975 RMK AO2 SLP074 T02170194
 
KDXR - Danbury, Connecticut, USA
Distance from station: W 23mi, 38km
Updated: 06/18/2018 9:53pm
NOT Current
Few Clouds
Few Clouds
 Wind from SSE
Wind: SSE 3 mph , 6 km/h
Temperature: 72°F , 22°C
Dew Point: 72°F , 22°C
Humidity: 100%
Barometer: 29.82 inHg , 1009.8 hPa
Clouds: Few Clouds
Visibility: 8 miles , 13 km
Cloud details: Few Clouds 6000 ft
2018/06/19 01:53 KDXR 190153Z 16003KT 8SM FEW060 22/22 A2982